Shawnigan Lake, British Columbia

7:38 PM PDT on April 26, 2015 (GMT -0700)
Mill Bay | | Change Station
CLOSE
Current Station
Personal Weather Station
Location: Mill Bay, BC
Elevation: 355 ft
Nearby Weather Stations

Elev 355 ft 48.64 °N, 123.59 °W | Updated 6 minutes ago

Overcast
Overcast
57.0 °F
Feels Like 57.0 °F
N
0.0
Wind Variable Wind from NNE
Gusts 0.0 mph

Tomorrow is forecast to be nearly the same temperature as today.

Today
High -- | Low -- °F
--% Chance of Precip.
Yesterday
High -- | Low -- °F
Precip. -- in
6:03 AM 8:21 PM
First Quarter, 61% visible
Pressure 30.19 in
Visibility 30.0 miles
Clouds Mostly Cloudy 5300 ft
Overcast 8000 ft
Dew Point 45 °F
Humidity 64%
Rainfall 0.00 in
Snow Depth Not available.
UV 0 out of 12
Pollen Not available.
Air Quality Not available.
Flu Activity Not available.
METAR CYYJ 270200Z 06003KT 050V110 30SM BKN053 OVC080 13/06 A3019 RMK SC6AC2 SLP222

More Conditions Fewer Conditions

Pressure 30.19 in
Visibility 30.0 miles
Clouds Mostly Cloudy 5300 ft
Overcast 8000 ft
Dew Point 45 °F
Humidity 64%
Rainfall 0.00 in
Snow Depth Not available.
UV 0 out of 12
Pollen Not available.
Air Quality Not available.
Flu Activity Not available.
METAR CYYJ 270200Z 06003KT 050V110 30SM BKN053 OVC080 13/06 A3019 RMK SC6AC2 SLP222

More Conditions Fewer Conditions

10-Day Weather Forecast

Almanac

Astronomy

Apr. 26, 2015 Rise Set
Actual Time
Civil Twilight
Nautical Twilight
Astronomical Twilight
Moon
Length of Visible Light
Length of Day
Tomorrow will be .
, % of the Moon is Illuminated

Today's Extremes

Country Highs Country Lows

Community

WunderPhotos

Upload Photos

1,817,204 photos uploaded!

WunderBlogs® & News

Nearby

Air Quality

  Air Quality AQ Index Pollutant
Not available.

Snow Depth

Station Depth Elevation

Earthquake Activity

City Distance Mag. Time & Date
Minimum magnitude displayed is 2.5.

Coastal Water Temperatures

Place Temperature

Stations

Nearby Weather Stations

Station Location Temp. Windchill Dew Point Humidity Wind Precip. Elev Updated Type